Flugplatz Berlin-Schönefeld International

Bericht für EDDB

vom 14.08. um 20:20 UTC

Wind 8 kt aus 100°

Sichtweite 10 km oder mehr

gute Sicht, keine Wolken < 5000 ft, keine CB, keine Wettererscheinungen (CAVOK)

Temperatur 25.0°C

Taupunkt 16.0°C

Luftfeuchtigkeit 57%

Luftdruck 1007 hPa

keine wesentliche Wetteränderung innerhalb den nächsten 2 Stunden zu erwarten

EDDB 142020Z AUTO 10008KT CAVOK 25/16 Q1007 NOSIG

Prognose für EDDB

vom 14.08. um 17:00 UTC

Zwischen 18:00 UTC und 18:00 UTC

Wind 7 kt aus 80°

Sichtweite 10 km oder mehr

keine signifikanten Wettererscheinungen

keine Wolken


Am 15.08. zwischen 02:00 UTC und 06:00 UTC zeitweise mit einer Wahrscheinlichkeit von 30%

aufgebrochene Bewölkung in 800 ft


Am 15.08. zwischen 13:00 UTC und 18:00 UTC zeitweise mit einer Wahrscheinlichkeit von 40%

Wind 15 kt aus 240° in Böen 25 kt

Code: TSRA

aufgebrochene Bewölkung in 4000 ft

TAF EDDB 141700Z 1418/1518 08007KT CAVOK PROB30 TEMPO 1502/1506 BKN008 PROB40 TEMPO 1513/1518 24015G25KT TSRA BKN040CB
Impressum